< < Back
Terminal Aerodrome Forecast


Current Version              Previous Versions:   1  2  3  4  5  6  7  8  9  

Terminal Aerodrome Forecast

894
FTUS42 KTAE 271326 AAA
TAFABY
TAF AMD
KABY 271326Z 2713/2812 00000KT P6SM BKN002
     FM271400 15005KT P6SM SCT050=

Latest METAR

294
SAUS70 KWBC 271600 RRF
MTRABY
METAR KABY 271553Z 22006KT 10SM CLR 30/21 A3012 RMK AO2 SLP197
T03000211


USA.gov is the U.S. government's official web portal to all federal, state and local government web resources and services.